This is the latest recevied weather packets stored in our database for station/object WA7ABU-29. If no packets are shown the sender has not sent any weather packets the latest 10 day(s).
| Time | Temp. | Humidity | Pressure | Rain* | Wind** | Luminosity | Snow |
|---|---|---|---|---|---|---|---|
| 1777094581 | 11.67° C | 33% | 994.6 hPa | 0 mm | - | - | - |
| 1777093535 | 11.67° C | 34% | 994.6 hPa | 0 mm | - | - | - |
| 1777092625 | 12.22° C | 33% | 994.9 hPa | 0 mm | - | - | - |
| 1777091882 | 12.22° C | 33% | 994.6 hPa | 0 mm | - | - | - |
| 1777090859 | 12.78° C | 35% | 994.9 hPa | 0 mm | - | - | - |
| 1777090083 | 12.78° C | 40% | 994.6 hPa | 0 mm | - | - | - |
| 1777089835 | 12.78° C | 40% | 994.6 hPa | 0 mm | - | - | - |
| 1777089587 | 12.78° C | 41% | 994.6 hPa | 0 mm | - | - | - |
| 1777088141 | 13.33° C | 43% | 994.2 hPa | 0 mm | - | - | - |
| 1777087882 | 13.33° C | 43% | 994.2 hPa | 0 mm | - | - | - |
| 1777087478 | 13.33° C | 45% | 994.2 hPa | 0 mm | - | - | - |
| 1777085802 | 14.44° C | 40% | 994.6 hPa | 0 mm | - | - | - |
| 1777085398 | 14.44° C | 40% | 994.2 hPa | 0 mm | - | - | - |
| 1777085095 | 14.44° C | 41% | 994.2 hPa | 0 mm | - | - | - |
| 1777084837 | 14.44° C | 40% | 994.2 hPa | 0 mm | - | - | - |
| 1777084186 | 15° C | 38% | 994.2 hPa | 0 mm | - | - | - |
| 1777083815 | 15° C | 36% | 994.2 hPa | 0 mm | - | - | - |
| 1777078077 | 16.67° C | 33% | 994.6 hPa | 0 mm | - | - | - |
| 1777077953 | 17.22° C | 34% | 994.6 hPa | 0 mm | - | - | - |
| 1777077706 | 16.67° C | 35% | 994.2 hPa | 0 mm | - | - | - |
| 1777076898 | 17.22° C | 32% | 994.6 hPa | 0 mm | - | - | - |
| 1777076527 | 17.22° C | 33% | 994.6 hPa | 0 mm | - | - | - |
| 1777076279 | 16.67° C | 34% | 994.9 hPa | 0 mm | - | - | - |
| 1777076028 | 16.67° C | 32% | 994.6 hPa | 0 mm | - | - | - |
| 1777075625 | 16.67° C | 36% | 994.6 hPa | 0 mm | - | - | - |
* Rain latest hour (hover to see other rain measurements)
** Current wind speed in m/s (hover to see current wind gust speed)